Time;durP1;ratioP1;P1;durP2;ratioP2;P2;SDS_P1;SDS_P2;PMS_P1;PMS_P2;Temp;Humidity;BMP_temperature;BMP_pressure;BME280_temperature;BME280_humidity;BME280_pressure;Samples;Min_cycle;Max_cycle;Signal;HPM_P1;HPM_P2
2022/08/01 00:02:17;;;;;;;6.55;4.53;;;;;;;16.05;82.97;96948.34;1827345;78;26562;-76
2022/08/01 00:04:44;;;;;;;7.08;4.37;;;;;;;16.03;82.96;96946.41;1827348;78;25657;-76
2022/08/01 00:07:10;;;;;;;6.83;4.37;;;;;;;16.02;82.90;96950.75;1827449;78;27337;-77
2022/08/01 00:09:37;;;;;;;5.22;4.33;;;;;;;16.00;82.89;96942.84;1827094;78;25704;-76
2022/08/01 00:12:04;;;;;;;5.90;4.65;;;;;;;16.00;82.99;96942.84;1827305;76;25776;-76
2022/08/01 00:14:31;;;;;;;6.83;4.80;;;;;;;15.99;82.92;96937.64;1827289;78;26108;-77
2022/08/01 00:16:58;;;;;;;6.75;4.62;;;;;;;15.95;82.95;96938.69;1827497;78;25704;-77
2022/08/01 00:19:24;;;;;;;4.87;4.37;;;;;;;15.96;82.98;96943.06;1827227;78;28323;-76
2022/08/01 00:21:51;;;;;;;5.75;4.47;;;;;;;15.96;83.01;96941.70;1827178;78;25687;-77
2022/08/01 00:24:17;;;;;;;5.80;4.62;;;;;;;15.96;82.95;96942.23;1830487;78;25787;-76
2022/08/01 00:26:44;;;;;;;6.55;4.83;;;;;;;15.93;82.94;96939.51;1831369;78;26107;-76
2022/08/01 00:29:10;;;;;;;5.28;4.78;;;;;;;15.94;83.01;96947.93;1831182;78;25637;-77
2022/08/01 00:31:37;;;;;;;8.35;5.00;;;;;;;15.93;82.95;96949.58;1831202;78;27377;-76
2022/08/01 00:34:03;;;;;;;5.50;4.47;;;;;;;15.91;83.00;96944.92;1831056;78;25478;-76
2022/08/01 00:36:30;;;;;;;5.37;4.65;;;;;;;15.91;83.01;96943.02;1831174;78;25186;-77
2022/08/01 00:38:56;;;;;;;6.55;4.78;;;;;;;15.93;82.98;96942.23;1831304;78;26056;-76
2022/08/01 00:41:23;;;;;;;11.78;4.85;;;;;;;15.93;82.95;96943.59;1831238;78;26633;-76
2022/08/01 00:43:49;;;;;;;4.85;4.28;;;;;;;15.95;82.89;96948.75;1830918;78;27531;-76
2022/08/01 00:46:16;;;;;;;6.87;4.62;;;;;;;15.94;82.87;96949.29;1831021;78;25708;-76
2022/08/01 00:48:43;;;;;;;9.85;4.90;;;;;;;15.94;82.87;96949.29;1830872;78;25759;-76
2022/08/01 00:51:09;;;;;;;6.95;4.55;;;;;;;15.94;82.88;96950.66;1830830;78;26030;-76
2022/08/01 00:53:36;;;;;;;4.72;4.22;;;;;;;15.94;82.82;96950.66;1831114;78;25265;-77
2022/08/01 00:56:03;;;;;;;9.13;4.35;;;;;;;15.93;82.81;96947.67;1831329;78;27328;-76
2022/08/01 00:58:31;;;;;;;4.65;4.25;;;;;;;15.91;82.76;96946.28;1831205;78;25689;-77
2022/08/01 01:00:59;;;;;;;4.67;4.28;;;;;;;15.90;82.78;96944.09;1831069;78;25731;-76
2022/08/01 01:03:26;;;;;;;5.10;4.45;;;;;;;15.87;82.75;96945.97;1831052;78;25967;-76
2022/08/01 01:06:23;;;;;;;5.65;5.00;;;;;;;15.87;82.80;96943.24;1831105;78;25693;-76
2022/08/01 01:09:00;;;;;;;5.00;4.25;;;;;;;15.86;82.76;96941.59;1797200;79;27409;-76
2022/08/01 01:11:41;;;;;;;5.85;4.55;;;;;;;15.87;82.74;96950.05;1772284;80;25780;-76
2022/08/01 01:14:16;;;;;;;5.47;4.35;;;;;;;15.87;82.67;96949.22;1772118;80;26081;-76
2022/08/01 01:16:45;;;;;;;8.45;4.00;;;;;;;15.87;82.72;96948.69;1769622;80;25999;-77
2022/08/01 01:19:16;;;;;;;8.13;4.42;;;;;;;15.86;82.70;96949.76;1776369;80;25839;-76
2022/08/01 01:22:12;;;;;;;7.53;4.47;;;;;;;15.85;82.67;96942.67;1773502;80;27387;-76
2022/08/01 01:25:00;;;;;;;8.15;4.62;;;;;;;15.84;82.67;96947.83;1772387;80;25806;-76
2022/08/01 01:27:35;;;;;;;5.25;4.75;;;;;;;15.83;82.65;96947.00;1772483;80;25275;-76
2022/08/01 01:30:02;;;;;;;6.08;4.83;;;;;;;15.82;82.62;96939.91;1680990;84;26040;-76
2022/08/01 01:32:37;;;;;;;7.15;4.67;;;;;;;15.80;82.58;96934.47;1681937;85;25874;-75
2022/08/01 01:35:15;;;;;;;6.35;4.12;;;;;;;15.81;82.54;96942.92;1682123;85;27556;-75
2022/08/01 01:37:44;;;;;;;7.17;4.40;;;;;;;15.78;82.49;96939.34;1657902;86;25309;-75
2022/08/01 01:40:13;;;;;;;6.95;4.30;;;;;;;15.76;82.53;96946.93;1629113;86;25339;-75
2022/08/01 01:42:42;;;;;;;8.20;5.17;;;;;;;15.77;82.49;96951.30;1625510;88;25997;-75
2022/08/01 01:45:10;;;;;;;6.35;4.70;;;;;;;15.76;82.41;96953.73;1625742;88;25901;-76
2022/08/01 01:47:40;;;;;;;7.30;4.83;;;;;;;15.70;82.29;96954.73;1627117;84;28177;-75
2022/08/01 01:50:10;;;;;;;6.08;4.37;;;;;;;15.68;82.35;96948.75;1669158;85;25797;-75
2022/08/01 01:52:39;;;;;;;9.35;4.67;;;;;;;15.59;82.27;96956.52;1685976;85;25780;-76
2022/08/01 01:55:09;;;;;;;4.95;4.45;;;;;;;15.58;82.46;96955.44;1669271;85;26016;-75
2022/08/01 01:57:41;;;;;;;5.30;4.53;;;;;;;15.56;82.45;96952.15;1685928;85;25809;-75
2022/08/01 02:00:11;;;;;;;9.05;4.53;;;;;;;15.55;82.47;96951.33;1669311;85;27384;-75
2022/08/01 02:02:38;;;;;;;5.40;4.90;;;;;;;15.53;82.46;96949.89;1685935;85;25823;-75
2022/08/01 02:05:10;;;;;;;5.42;4.25;;;;;;;15.51;82.46;96951.50;1669318;85;25796;-75
2022/08/01 02:07:38;;;;;;;8.58;4.85;;;;;;;15.52;82.54;96948.25;1720026;81;26081;-75
2022/08/01 02:10:08;;;;;;;8.40;4.25;;;;;;;15.48;82.47;96940.59;1750648;81;26794;-75
2022/08/01 02:12:38;;;;;;;9.53;4.53;;;;;;;15.48;82.55;96943.31;1750446;81;28419;-75
2022/08/01 02:15:06;;;;;;;5.25;4.47;;;;;;;15.48;82.50;96951.47;1700578;84;26089;-75
2022/08/01 02:17:43;;;;;;;6.78;4.60;;;;;;;15.47;82.52;96947.10;1755908;81;25763;-76
2022/08/01 02:20:12;;;;;;;4.87;4.42;;;;;;;15.44;82.46;96944.91;1755888;81;25942;-75
2022/08/01 02:22:49;;;;;;;8.03;4.60;;;;;;;15.41;82.53;96943.23;1755795;81;26228;-75
2022/08/01 02:25:34;;;;;;;4.65;4.25;;;;;;;15.40;82.57;96945.66;1702928;84;26903;-75
2022/08/01 02:28:28;;;;;;;5.60;4.45;;;;;;;15.37;82.63;96949.70;1754995;81;25749;-75
2022/08/01 02:30:59;;;;;;;4.53;4.12;;;;;;;15.37;82.68;96942.08;1756025;81;25816;-76
2022/08/01 02:33:31;;;;;;;5.62;4.42;;;;;;;15.36;82.78;96939.89;1761465;79;26025;-75
2022/08/01 02:36:00;;;;;;;5.15;4.72;;;;;;;15.35;82.76;96946.41;1674147;85;25778;-76
2022/08/01 02:38:28;;;;;;;4.87;4.45;;;;;;;15.34;82.80;96948.84;1676545;85;27461;-75
2022/08/01 02:41:00;;;;;;;9.25;4.80;;;;;;;15.30;82.79;96946.36;1676389;85;26086;-75
2022/08/01 02:43:29;;;;;;;4.50;4.10;;;;;;;15.31;82.88;96951.26;1676530;85;25726;-75
2022/08/01 02:45:59;;;;;;;6.05;4.00;;;;;;;15.32;82.89;96950.19;1676598;85;26565;-76
2022/08/01 02:48:28;;;;;;;10.08;4.62;;;;;;;15.34;82.94;96950.20;1676692;85;25825;-75
2022/08/01 02:50:58;;;;;;;7.25;4.83;;;;;;;15.34;82.94;96950.20;1676565;85;28125;-76
2022/08/01 02:53:27;;;;;;;6.62;5.25;;;;;;;15.36;82.93;96948.05;1676563;85;25714;-75
2022/08/01 02:55:55;;;;;;;8.03;5.33;;;;;;;15.39;82.93;96952.17;1676640;85;25798;-75
2022/08/01 02:58:23;;;;;;;8.43;4.95;;;;;;;15.40;82.91;96961.97;1676222;85;26052;-75
2022/08/01 03:00:51;;;;;;;5.50;5.00;;;;;;;15.40;82.89;96963.34;1676387;85;25774;-76
2022/08/01 03:03:18;;;;;;;5.17;4.62;;;;;;;15.39;82.84;96965.23;1676575;85;27579;-75
2022/08/01 03:05:45;;;;;;;7.53;4.35;;;;;;;15.40;82.84;96962.80;1676576;85;25754;-75
2022/08/01 03:08:14;;;;;;;7.62;4.87;;;;;;;15.40;82.83;96967.41;1676452;85;25778;-75
2022/08/01 03:10:43;;;;;;;5.80;4.80;;;;;;;15.39;82.86;96966.59;1676456;84;26803;-76
2022/08/01 03:13:11;;;;;;;7.80;4.53;;;;;;;15.38;82.86;96964.12;1727943;79;25822;-75
2022/08/01 03:15:42;;;;;;;5.22;4.33;;;;;;;15.39;82.86;96960.33;1815014;79;28252;-75
2022/08/01 03:18:11;;;;;;;8.08;4.95;;;;;;;15.40;82.82;96957.89;1815113;78;25732;-76
2022/08/01 03:20:38;;;;;;;5.25;4.35;;;;;;;15.39;82.78;96955.71;1815095;79;25705;-76
2022/08/01 03:23:08;;;;;;;7.42;4.75;;;;;;;15.40;82.76;96967.41;1814474;79;26028;-76
2022/08/01 03:25:39;;;;;;;6.37;4.58;;;;;;;15.40;82.72;96966.05;1750357;81;25699;-75
2022/08/01 03:28:07;;;;;;;8.38;4.33;;;;;;;15.38;82.61;96962.22;1750474;81;27923;-75
2022/08/01 03:30:37;;;;;;;6.40;4.70;;;;;;;15.33;82.50;96961.35;1750297;81;25563;-75
2022/08/01 03:33:03;;;;;;;7.95;4.50;;;;;;;15.31;82.58;96958.88;1750477;81;25719;-75
2022/08/01 03:35:37;;;;;;;8.38;5.28;;;;;;;15.30;82.59;96962.67;1750409;81;26060;-75
2022/08/01 03:38:10;;;;;;;5.42;4.33;;;;;;;15.30;82.57;96973.55;1758796;81;25875;-75
2022/08/01 03:40:48;;;;;;;6.58;4.72;;;;;;;15.29;82.48;96969.72;1742665;82;27465;-75
2022/08/01 03:43:29;;;;;;;5.30;4.35;;;;;;;15.14;82.63;96951.30;1669394;85;25820;-75
2022/08/01 03:46:01;;;;;;;6.72;4.62;;;;;;;15.22;82.49;96973.96;1669162;85;25323;-75
2022/08/01 03:48:29;;;;;;;6.85;5.08;;;;;;;15.22;82.55;96974.50;1666907;85;26487;-75
2022/08/01 03:50:58;;;;;;;7.67;4.90;;;;;;;15.24;82.60;96974.54;1669697;84;25806;-75
2022/08/01 03:53:30;;;;;;;5.62;4.85;;;;;;;15.26;82.57;96975.12;1669698;85;45354;-76
2022/08/01 03:56:01;;;;;;;5.60;4.37;;;;;;;15.28;82.54;96982.49;1669609;85;25876;-76
2022/08/01 03:58:29;;;;;;;4.53;4.20;;;;;;;15.29;82.53;96985.50;1669865;85;25845;-76
2022/08/01 04:00:57;;;;;;;5.67;5.10;;;;;;;15.27;82.45;96982.73;1670096;85;26013;-76
2022/08/01 04:03:24;;;;;;;8.18;4.90;;;;;;;15.23;82.59;96978.33;1669814;85;25805;-76
2022/08/01 04:05:51;;;;;;;10.13;4.75;;;;;;;15.23;82.56;96985.13;1669924;85;27559;-75
2022/08/01 04:08:17;;;;;;;6.47;5.20;;;;;;;15.20;82.54;96987.02;1669848;85;26424;-75
2022/08/01 04:10:44;;;;;;;5.33;4.83;;;;;;;15.20;82.60;96978.86;1669955;85;25752;-75
2022/08/01 04:13:10;;;;;;;5.67;4.92;;;;;;;15.22;82.57;96982.12;1669837;85;26669;-75
2022/08/01 04:15:37;;;;;;;5.10;4.70;;;;;;;15.19;82.48;96984.54;1669894;85;25802;-75
2022/08/01 04:18:03;;;;;;;5.70;4.50;;;;;;;15.19;82.49;96986.72;1669902;85;27594;-75
2022/08/01 04:20:30;;;;;;;5.78;4.65;;;;;;;15.19;82.42;96990.80;1669978;84;25885;-76
2022/08/01 04:22:56;;;;;;;12.78;5.30;;;;;;;15.19;82.42;96989.98;1681809;84;25334;-75
2022/08/01 04:25:28;;;;;;;4.92;4.47;;;;;;;15.15;82.37;96991.00;1674265;85;26496;-75
2022/08/01 04:27:57;;;;;;;6.20;4.62;;;;;;;15.14;82.43;96987.46;1649470;86;26247;-75
2022/08/01 04:30:28;;;;;;;8.90;4.83;;;;;;;15.14;82.35;96989.36;1653699;86;28194;-76
2022/08/01 04:32:57;;;;;;;6.37;5.25;;;;;;;15.14;82.39;96986.64;1653850;86;25481;-75
2022/08/01 04:35:25;;;;;;;10.80;6.37;;;;;;;15.15;82.40;96989.64;1648073;86;25829;-76
2022/08/01 04:37:54;;;;;;;8.18;6.33;;;;;;;15.16;82.37;96987.75;1728302;81;25965;-75
2022/08/01 04:40:21;;;;;;;9.23;7.17;;;;;;;15.15;82.31;96984.20;1750495;81;25809;-75
2022/08/01 04:42:49;;;;;;;10.23;6.37;;;;;;;15.16;82.27;96988.58;1794057;79;27419;-75
2022/08/01 04:45:16;;;;;;;8.15;5.85;;;;;;;15.15;82.25;96988.28;1793688;78;25704;-76
2022/08/01 04:47:44;;;;;;;6.53;5.37;;;;;;;15.16;82.20;96992.66;1793994;79;25298;-75
2022/08/01 04:50:11;;;;;;;6.15;5.12;;;;;;;15.15;82.17;96995.08;1793785;78;26066;-75
2022/08/01 04:52:38;;;;;;;6.17;5.15;;;;;;;15.14;82.11;96990.72;1794301;79;25874;-76
2022/08/01 04:55:07;;;;;;;7.37;5.83;;;;;;;15.13;82.03;96991.78;1794059;79;27390;-76
2022/08/01 04:57:41;;;;;;;9.08;6.28;;;;;;;15.11;82.16;96992.03;1793917;78;25724;-76
2022/08/01 05:00:10;;;;;;;7.30;6.05;;;;;;;15.14;82.21;96994.80;1793663;79;26439;-76
2022/08/01 05:02:37;;;;;;;7.90;6.12;;;;;;;15.16;82.23;96994.55;1793841;79;26027;-76
2022/08/01 05:05:08;;;;;;;6.62;6.03;;;;;;;15.19;82.26;96986.72;1793975;79;26022;-76
2022/08/01 05:07:36;;;;;;;;;;;;;;;15.23;82.28;96989.73;1796572;79;27362;-76
2022/08/01 05:10:06;;;;;;;10.20;6.00;;;;;;;15.25;82.35;96988.42;1788236;80;25801;-75
2022/08/01 05:12:33;;;;;;;7.03;5.80;;;;;;;15.26;82.37;96990.07;1788304;80;25710;-76
2022/08/01 05:15:00;;;;;;;6.72;5.78;;;;;;;15.30;82.38;96992.58;1788393;80;25921;-76
2022/08/01 05:17:26;;;;;;;6.25;5.37;;;;;;;15.35;82.33;96998.08;1788473;80;26741;-76
2022/08/01 05:19:53;;;;;;;6.65;5.03;;;;;;;15.39;82.30;96996.50;1788223;80;27968;-76
2022/08/01 05:22:19;;;;;;;8.25;5.33;;;;;;;15.42;82.25;96993.83;1788233;80;25251;-76
2022/08/01 05:24:46;;;;;;;6.00;5.20;;;;;;;15.48;82.18;96994.98;1808715;78;25577;-76
2022/08/01 05:27:13;;;;;;;6.78;5.37;;;;;;;15.50;82.12;96998.82;1829741;78;26629;-76
2022/08/01 05:29:40;;;;;;;5.78;5.12;;;;;;;15.54;82.22;96999.14;1829750;78;25700;-76
2022/08/01 05:32:07;;;;;;;5.92;5.08;;;;;;;15.58;82.30;97002.48;1829359;78;27432;-77
2022/08/01 05:34:34;;;;;;;5.35;4.85;;;;;;;15.63;82.39;97004.45;1829705;78;25646;-77
2022/08/01 05:37:00;;;;;;;7.30;5.10;;;;;;;15.68;82.40;96997.73;1829619;78;25811;-77
2022/08/01 05:39:27;;;;;;;12.25;5.58;;;;;;;15.74;82.42;97006.22;1829701;78;26638;-77
2022/08/01 05:41:53;;;;;;;6.45;4.97;;;;;;;15.78;82.42;97006.83;1829665;78;25737;-77
2022/08/01 05:44:20;;;;;;;5.92;5.42;;;;;;;15.83;82.43;97003.33;1829674;78;27332;-76
2022/08/01 05:46:46;;;;;;;6.87;5.00;;;;;;;15.88;82.42;97002.05;1829488;78;25696;-76
2022/08/01 05:49:13;;;;;;;9.48;5.40;;;;;;;15.93;82.44;96997.20;1829663;78;25737;-76
2022/08/01 05:51:39;;;;;;;6.00;5.40;;;;;;;15.99;82.51;97005.70;1829428;78;26019;-76
2022/08/01 05:54:07;;;;;;;6.70;5.58;;;;;;;16.03;82.61;96996.78;1829670;78;25761;-76
2022/08/01 05:56:33;;;;;;;6.00;5.40;;;;;;;16.08;82.60;97000.90;1829498;78;28342;-76
2022/08/01 05:58:59;;;;;;;6.35;5.72;;;;;;;16.13;82.56;96998.24;1829370;78;25657;-76
2022/08/01 06:01:26;;;;;;;7.40;5.30;;;;;;;16.18;82.51;97002.93;1829302;78;25629;-76
2022/08/01 06:03:54;;;;;;;8.25;5.65;;;;;;;16.21;82.50;97001.86;1829641;78;26824;-76
2022/08/01 06:06:23;;;;;;;5.80;5.28;;;;;;;16.25;82.50;97006.80;1829633;78;25670;-76
2022/08/01 06:08:50;;;;;;;7.65;5.40;;;;;;;16.29;82.53;97007.40;1829729;78;27357;-76
2022/08/01 06:11:16;;;;;;;6.53;5.70;;;;;;;16.35;82.57;97010.98;1829539;78;25771;-76
2022/08/01 06:13:43;;;;;;;8.78;6.40;;;;;;;16.39;82.57;97017.03;1817665;78;25226;-76
2022/08/01 06:16:09;;;;;;;7.37;5.95;;;;;;;16.44;82.56;97011.61;1802254;79;25976;-76
2022/08/01 06:18:36;;;;;;;6.72;5.87;;;;;;;16.47;82.59;97013.00;1802115;79;25181;-76
2022/08/01 06:21:03;;;;;;;6.08;5.20;;;;;;;16.53;82.55;97017.44;1802181;79;27358;-76
2022/08/01 06:23:29;;;;;;;6.45;4.85;;;;;;;16.58;82.44;97014.73;1802107;79;25624;-76
2022/08/01 06:25:56;;;;;;;6.78;5.00;;;;;;;16.63;82.26;97017.55;1796783;79;25658;-76
2022/08/01 06:28:22;;;;;;;5.45;4.87;;;;;;;16.69;82.31;97023.31;1788740;80;26088;-76
2022/08/01 06:30:49;;;;;;;5.00;4.50;;;;;;;16.75;82.37;97022.83;1788710;80;25587;-76
2022/08/01 06:33:16;;;;;;;6.95;4.85;;;;;;;16.82;82.50;97016.06;1788559;80;27330;-76
2022/08/01 06:35:42;;;;;;;8.10;4.92;;;;;;;16.89;82.52;97023.50;1788643;80;25663;-76
2022/08/01 06:38:09;;;;;;;5.83;3.90;;;;;;;16.93;82.49;97023.24;1788706;80;25674;-76
2022/08/01 06:40:35;;;;;;;6.62;4.78;;;;;;;16.96;82.09;97018.36;1788625;79;25996;-76
2022/08/01 06:43:02;;;;;;;5.55;4.10;;;;;;;17.01;82.17;97019.77;1788836;80;25706;-76
2022/08/01 06:45:28;;;;;;;6.30;3.62;;;;;;;17.04;82.22;97014.59;1799307;78;27376;-76
2022/08/01 06:47:55;;;;;;;5.95;3.30;;;;;;;17.10;82.08;97020.92;1804323;78;25726;-76
2022/08/01 06:50:21;;;;;;;3.98;3.10;;;;;;;17.14;81.75;97022.05;1806417;78;25283;-76
2022/08/01 06:52:48;;;;;;;5.58;3.20;;;;;;;17.21;81.54;97019.36;1803051;78;26700;-76
2022/08/01 06:55:14;;;;;;;3.25;2.95;;;;;;;17.26;81.19;97013.13;1804585;78;25753;-75
2022/08/01 06:57:50;;;;;;;6.62;3.10;;;;;;;17.32;80.83;97014.79;1806239;78;27439;-76
2022/08/01 07:00:22;;;;;;;3.50;3.12;;;;;;;17.38;80.56;97021.94;1794251;79;25464;-75
2022/08/01 07:02:51;;;;;;;3.33;2.77;;;;;;;17.45;80.46;97025.23;1807378;78;25258;-76
2022/08/01 07:05:18;;;;;;;4.40;2.55;;;;;;;17.53;80.19;97027.45;1787352;80;25955;-75
2022/08/01 07:07:45;;;;;;;3.10;2.80;;;;;;;17.60;79.97;97025.33;1787572;80;25336;-76
2022/08/01 07:10:11;;;;;;;5.08;2.72;;;;;;;17.67;79.33;97031.11;1787273;80;27329;-76
2022/08/01 07:12:39;;;;;;;4.78;2.70;;;;;;;17.74;79.38;97023.52;1787498;80;25793;-75
2022/08/01 07:15:08;;;;;;;3.52;2.60;;;;;;;17.80;79.21;97017.80;1787423;80;25786;-75
2022/08/01 07:17:42;;;;;;;3.25;2.75;;;;;;;17.88;79.40;97015.09;1787327;80;25998;-75
2022/08/01 07:20:12;;;;;;;3.37;3.00;;;;;;;17.96;79.22;97014.59;1787510;80;25761;-75
2022/08/01 07:22:39;;;;;;;4.40;2.70;;;;;;;18.02;78.56;97009.95;1787375;80;28255;-76
2022/08/01 07:25:07;;;;;;;3.17;2.85;;;;;;;18.09;78.64;97020.92;1788399;78;25803;-76
2022/08/01 07:27:34;;;;;;;6.12;3.17;;;;;;;18.17;78.28;97019.56;1790419;80;25882;-75
2022/08/01 07:30:01;;;;;;;3.58;2.92;;;;;;;18.22;77.65;97010.85;1790583;78;26094;-74
2022/08/01 07:32:29;;;;;;;4.47;2.92;;;;;;;18.31;77.86;97013.33;1790093;78;25861;-75
2022/08/01 07:34:56;;;;;;;5.25;3.12;;;;;;;18.42;77.90;97012.80;1790468;80;28029;-75
2022/08/01 07:37:23;;;;;;;3.85;2.70;;;;;;;18.54;77.88;97013.36;1790285;80;26050;-76
2022/08/01 07:39:50;;;;;;;3.83;2.50;;;;;;;18.65;77.37;97010.12;1790499;80;25769;-74
2022/08/01 07:42:17;;;;;;;3.92;2.90;;;;;;;18.77;77.45;97014.77;1790357;80;26071;-75
2022/08/01 07:44:43;;;;;;;7.03;2.67;;;;;;;19.00;77.30;97009.30;1790147;80;26587;-75
2022/08/01 07:47:10;;;;;;;4.25;2.47;;;;;;;19.34;76.68;97002.68;1790453;78;28329;-75
2022/08/01 07:49:37;;;;;;;3.15;2.40;;;;;;;19.77;76.46;97006.71;1790274;80;25753;-75
2022/08/01 07:52:04;;;;;;;2.75;2.55;;;;;;;20.29;76.74;96999.31;1790287;80;26464;-75
2022/08/01 07:54:32;;;;;;;4.20;2.47;;;;;;;20.81;76.53;97000.09;1790456;78;26139;-75
2022/08/01 07:56:58;;;;;;;2.00;1.80;;;;;;;21.33;75.56;96999.12;1790746;80;26091;-75
2022/08/01 07:59:25;;;;;;;2.17;1.72;;;;;;;21.80;73.41;97006.02;1790527;80;26883;-75
2022/08/01 08:01:51;;;;;;;3.15;1.98;;;;;;;22.15;72.04;97004.78;1805491;78;25701;-75
2022/08/01 08:04:18;;;;;;;4.35;1.75;;;;;;;22.63;71.89;97000.52;1829476;78;25649;-75
2022/08/01 08:06:47;;;;;;;2.87;2.20;;;;;;;23.07;71.50;97000.66;1829606;78;26025;-75
2022/08/01 08:09:14;;;;;;;3.90;1.90;;;;;;;23.49;70.22;97002.41;1826918;78;25860;-75
2022/08/01 08:11:43;;;;;;;6.03;1.90;;;;;;;23.84;68.20;96997.62;1826955;78;27349;-75
2022/08/01 08:14:10;;;;;;;6.60;2.00;;;;;;;24.14;67.52;96996.19;1826902;78;26224;-75
2022/08/01 08:16:37;;;;;;;4.70;1.60;;;;;;;24.40;66.70;97000.02;1827090;78;25739;-75
2022/08/01 08:19:04;;;;;;;2.83;1.98;;;;;;;24.74;66.29;96999.55;1826990;78;25975;-76
2022/08/01 08:21:30;;;;;;;2.70;1.50;;;;;;;25.07;65.73;96997.95;1827129;78;25657;-76
2022/08/01 08:26:42;;;;;;;3.15;1.90;;;;;;;25.60;63.47;96997.13;1830409;78;25652;-76
2022/08/01 08:29:08;;;;;;;3.47;1.72;;;;;;;25.93;63.14;96994.28;1830948;78;25696;-76
2022/08/01 08:31:35;;;;;;;3.30;1.80;;;;;;;26.31;62.68;97002.07;1830630;78;26080;-75
2022/08/01 08:34:01;;;;;;;5.12;1.50;;;;;;;26.52;60.58;96999.73;1830894;78;26530;-76
2022/08/01 08:36:28;;;;;;;3.87;1.77;;;;;;;26.60;61.16;97000.88;1830862;78;27367;-76
2022/08/01 08:38:54;;;;;;;3.55;1.57;;;;;;;26.99;61.15;96999.94;1830930;78;25650;-76
2022/08/01 08:41:22;;;;;;;2.90;1.80;;;;;;;27.43;60.40;97000.67;1830817;78;25717;-75
2022/08/01 08:43:49;;;;;;;3.60;1.60;;;;;;;27.69;58.06;96995.09;1830927;78;26668;-76
2022/08/01 08:46:17;;;;;;;2.90;1.40;;;;;;;27.98;58.14;97000.69;1830987;78;25670;-77
2022/08/01 08:48:44;;;;;;;2.10;1.25;;;;;;;28.33;57.13;97001.34;1830828;78;27422;-77
2022/08/01 08:51:11;;;;;;;2.35;1.57;;;;;;;28.67;55.99;96996.13;1830765;78;25922;-77
2022/08/01 08:53:43;;;;;;;3.85;1.75;;;;;;;28.92;56.04;96995.14;1830567;77;25733;-76
2022/08/01 08:56:11;;;;;;;2.77;1.10;;;;;;;29.32;55.29;96994.62;1822839;78;25983;-77
2022/08/01 08:58:45;;;;;;;4.20;1.55;;;;;;;29.67;53.63;96999.26;1822801;78;25879;-77
2022/08/01 09:01:13;;;;;;;2.90;1.50;;;;;;;29.89;53.46;96995.23;1822666;78;27372;-77
2022/08/01 09:03:40;;;;;;;1.85;1.40;;;;;;;30.07;52.39;97000.24;1822234;78;25975;-76
2022/08/01 09:06:07;;;;;;;2.47;1.70;;;;;;;30.34;51.65;97006.27;1822820;78;25672;-77
2022/08/01 09:08:33;;;;;;;2.55;1.30;;;;;;;30.51;51.10;97007.43;1822726;78;25986;-78
2022/08/01 09:11:00;;;;;;;2.08;1.52;;;;;;;30.55;50.48;97005.58;1822750;78;25638;-78
2022/08/01 09:13:26;;;;;;;4.00;1.52;;;;;;;30.62;49.81;97005.00;1822723;78;28127;-76
2022/08/01 09:15:56;;;;;;;4.85;1.60;;;;;;;30.82;49.06;97005.41;1822741;78;25731;-78
2022/08/01 09:18:34;;;;;;;3.08;1.32;;;;;;;30.86;48.70;97002.16;1822776;78;25748;-77
2022/08/01 09:21:20;;;;;;;8.00;1.50;;;;;;;31.02;48.29;97004.45;1819007;78;26806;-77
2022/08/01 09:23:51;;;;;;;3.17;1.87;;;;;;;31.09;47.54;97009.44;1819216;78;25720;-77
2022/08/01 09:26:36;;;;;;;4.00;1.97;;;;;;;31.21;45.95;97008.58;1818870;78;27378;-78
2022/08/01 09:29:07;;;;;;;1.35;1.25;;;;;;;31.10;46.79;97011.88;1818561;78;25467;-77
2022/08/01 09:31:43;;;;;;;4.20;1.62;;;;;;;31.17;46.33;97013.23;1818834;78;25867;-77
2022/08/01 09:34:10;;;;;;;2.95;1.60;;;;;;;31.21;46.35;97007.18;1756663;81;26794;-77
2022/08/01 09:36:58;;;;;;;2.90;1.60;;;;;;;31.27;45.61;97004.38;1756859;81;25717;-76
2022/08/01 09:39:37;;;;;;;6.00;1.50;;;;;;;31.30;45.29;97007.25;1756871;81;27528;-78
2022/08/01 09:42:25;;;;;;;1.57;1.47;;;;;;;31.29;44.14;97003.42;1757025;81;25782;-76
2022/08/01 09:44:52;;;;;;;1.82;1.40;;;;;;;31.01;44.18;97008.39;1756690;81;25730;-75
2022/08/01 09:47:20;;;;;;;3.77;1.30;;;;;;;30.80;44.52;97002.16;1760023;80;26189;-77
2022/08/01 09:49:56;;;;;;;2.27;1.45;;;;;;;30.73;44.19;97003.36;1764864;80;25809;-77
2022/08/01 09:52:25;;;;;;;3.92;1.47;;;;;;;30.77;43.91;97006.49;1762513;81;26963;-77
2022/08/01 09:55:06;;;;;;;2.40;1.50;;;;;;;30.82;43.71;97001.23;1764783;81;25798;-76
2022/08/01 09:57:32;;;;;;;2.37;1.60;;;;;;;30.87;43.34;97001.59;1763469;80;25740;-76
2022/08/01 10:00:01;;;;;;;2.95;1.50;;;;;;;30.91;42.94;97010.88;1702760;83;25986;-76
2022/08/01 10:02:34;;;;;;;2.87;2.00;;;;;;;30.88;42.80;97008.78;1753189;81;25951;-77
2022/08/01 10:05:04;;;;;;;1.98;1.52;;;;;;;30.64;42.12;97010.46;1753449;81;27438;-76
2022/08/01 10:07:30;;;;;;;4.33;1.70;;;;;;;30.57;42.42;97008.83;1753342;81;25741;-76
2022/08/01 10:10:13;;;;;;;2.25;1.85;;;;;;;30.53;42.41;97006.53;1753405;81;25731;-78
2022/08/01 10:12:42;;;;;;;2.70;1.80;;;;;;;30.48;42.20;97007.31;1809489;79;25934;-76
2022/08/01 10:15:09;;;;;;;3.33;1.67;;;;;;;30.47;42.30;97009.86;1812062;79;25697;-78
2022/08/01 10:17:39;;;;;;;2.85;2.55;;;;;;;30.55;42.04;97011.15;1812037;79;28351;-77
2022/08/01 10:20:08;;;;;;;5.62;1.65;;;;;;;30.61;41.96;97006.16;1811919;79;25826;-77
2022/08/01 10:22:35;;;;;;;3.00;1.47;;;;;;;30.69;41.68;97011.59;1783903;79;25718;-77
2022/08/01 10:25:05;;;;;;;4.03;1.60;;;;;;;30.70;41.74;97008.23;1811765;79;26838;-76
2022/08/01 10:27:35;;;;;;;8.13;2.75;;;;;;;30.72;41.57;97008.70;1808810;79;26233;-76
2022/08/01 10:30:05;;;;;;;3.40;1.60;;;;;;;30.73;41.08;97008.34;1808654;78;27448;-78
2022/08/01 10:32:34;;;;;;;2.12;1.57;;;;;;;30.65;40.72;97006.52;1808627;79;25668;-77
2022/08/01 10:35:03;;;;;;;2.60;1.98;;;;;;;30.51;40.14;97002.44;1808757;79;25665;-77
2022/08/01 10:37:30;;;;;;;3.35;1.60;;;;;;;30.45;40.18;97002.66;1808751;79;26170;-77
2022/08/01 10:39:57;;;;;;;5.17;1.98;;;;;;;30.54;40.00;96999.81;1808573;79;26456;-76
2022/08/01 10:42:24;;;;;;;2.72;1.60;;;;;;;30.61;39.66;96997.23;1808868;79;27365;-76
2022/08/01 10:44:52;;;;;;;3.75;2.08;;;;;;;30.63;40.29;96992.70;1808570;79;25666;-77
2022/08/01 10:47:27;;;;;;;1.92;1.70;;;;;;;30.60;40.25;96992.81;1808841;79;26336;-77
2022/08/01 10:50:07;;;;;;;3.45;1.55;;;;;;;30.54;39.96;96992.03;1742778;82;26293;-76
2022/08/01 10:52:34;;;;;;;3.02;1.62;;;;;;;30.43;40.38;96986.10;1658599;86;25732;-76
2022/08/01 10:55:05;;;;;;;4.53;1.67;;;;;;;30.49;39.81;96988.05;1661421;86;27443;-76
2022/08/01 10:57:48;;;;;;;1.87;1.40;;;;;;;30.45;40.34;96988.74;1661493;86;25828;-75
2022/08/01 11:00:21;;;;;;;3.30;2.42;;;;;;;30.49;39.72;96990.84;1661360;86;25698;-76
2022/08/01 11:03:03;;;;;;;1.70;1.60;;;;;;;30.26;40.45;96983.55;1658819;86;26591;-76
2022/08/01 11:05:35;;;;;;;2.45;1.60;;;;;;;30.17;40.62;96984.27;1661308;86;26008;-76
2022/08/01 11:08:11;;;;;;;2.35;1.60;;;;;;;29.92;40.51;96983.41;1661346;86;28467;-76
2022/08/01 11:10:42;;;;;;;2.85;1.80;;;;;;;29.72;41.02;96980.36;1597360;89;25805;-75
2022/08/01 11:13:11;;;;;;;2.33;1.87;;;;;;;29.71;40.60;96974.56;1597786;89;32990;-77
2022/08/01 11:15:40;;;;;;;2.87;1.60;;;;;;;29.40;40.21;96981.80;1597537;89;26818;-74
2022/08/01 11:18:31;;;;;;;6.50;1.80;;;;;;;29.17;40.72;96980.78;1572678;91;25632;-76
2022/08/01 11:21:02;;;;;;;3.52;1.67;;;;;;;29.23;40.96;96979.97;1572457;91;27522;-76
2022/08/01 11:23:32;;;;;;;4.97;1.95;;;;;;;29.28;41.39;96986.72;1572481;91;25931;-76
2022/08/01 11:26:07;;;;;;;2.00;1.70;;;;;;;29.29;41.04;96986.95;1572614;91;25838;-77
2022/08/01 11:28:33;;;;;;;5.92;1.60;;;;;;;29.05;41.30;96981.30;1560220;91;26904;-75
2022/08/01 11:31:17;;;;;;;3.67;1.80;;;;;;;28.92;42.05;96987.39;1572665;91;25954;-76
2022/08/01 11:33:49;;;;;;;2.60;2.10;;;;;;;28.92;41.87;96985.42;1557508;91;27493;-75
2022/08/01 11:36:19;;;;;;;3.20;1.80;;;;;;;28.75;42.15;96985.52;1572708;91;34906;-75
2022/08/01 11:38:51;;;;;;;3.12;1.85;;;;;;;28.54;42.07;96984.14;1560590;91;25855;-75
2022/08/01 11:41:32;;;;;;;2.70;1.57;;;;;;;28.47;42.15;96989.42;1616295;88;25999;-75
2022/08/01 11:44:15;;;;;;;2.67;1.70;;;;;;;28.34;41.80;96984.13;1618380;88;25753;-75
2022/08/01 11:47:02;;;;;;;3.33;1.80;;;;;;;28.23;41.95;96985.91;1618112;88;28347;-76
2022/08/01 11:49:42;;;;;;;2.05;1.45;;;;;;;28.15;42.33;96985.33;1633427;86;25736;-76